createdAt,value
2019-05-19T00:01:23.488Z,49.63
2019-05-19T00:03:53.803Z,49.64
2019-05-19T00:06:24.094Z,49.63
2019-05-19T00:08:54.618Z,49.67
2019-05-19T00:11:24.844Z,49.63
2019-05-19T00:13:56.709Z,49.56
2019-05-19T00:16:27.156Z,49.56
2019-05-19T00:18:57.425Z,49.56
2019-05-19T00:21:28.363Z,49.68
2019-05-19T00:23:59.890Z,49.75
2019-05-19T00:26:30.327Z,49.63
2019-05-19T00:29:00.568Z,49.59
2019-05-19T00:31:30.947Z,49.54
2019-05-19T00:34:01.264Z,49.52
2019-05-19T00:36:31.640Z,49.59
2019-05-19T00:39:01.974Z,49.62
2019-05-19T00:41:33.608Z,49.69
2019-05-19T00:44:03.896Z,49.68
2019-05-19T00:46:34.157Z,49.63
2019-05-19T00:49:04.371Z,49.58
2019-05-19T00:51:34.717Z,49.65
2019-05-19T00:54:04.981Z,49.71
2019-05-19T00:56:35.444Z,49.59
2019-05-19T00:59:06.034Z,49.48
2019-05-19T01:01:36.408Z,49.43
2019-05-19T01:04:06.786Z,49.35
2019-05-19T01:06:37.192Z,49.28
2019-05-19T01:09:07.964Z,49.29
2019-05-19T01:11:38.231Z,49.24
2019-05-19T01:14:08.545Z,49.23
2019-05-19T01:16:38.911Z,49.24
2019-05-19T01:19:09.274Z,49.14
2019-05-19T01:21:39.728Z,49.14
2019-05-19T01:24:10.030Z,49.12
2019-05-19T01:26:41.328Z,49.13
2019-05-19T01:29:11.787Z,49.10
2019-05-19T01:31:42.182Z,49.06
2019-05-19T01:34:12.707Z,49.03
2019-05-19T01:36:43.133Z,49.02
2019-05-19T01:39:13.276Z,49.00
2019-05-19T01:41:43.613Z,48.99
2019-05-19T01:44:13.891Z,48.96
2019-05-19T01:46:44.267Z,48.92
2019-05-19T01:49:14.548Z,48.86
2019-05-19T01:51:44.991Z,48.87
2019-05-19T01:54:16.806Z,48.94
2019-05-19T01:56:47.184Z,48.94
2019-05-19T01:59:17.465Z,49.08
2019-05-19T02:01:47.659Z,49.04
2019-05-19T02:04:17.907Z,48.99
2019-05-19T02:06:48.087Z,48.89
2019-05-19T02:09:18.477Z,48.90
2019-05-19T02:11:48.824Z,48.66
2019-05-19T02:14:19.356Z,48.55
2019-05-19T02:16:49.662Z,48.61
2019-05-19T02:19:20.412Z,48.58
2019-05-19T02:21:50.715Z,48.48
2019-05-19T02:24:21.107Z,48.41
2019-05-19T02:26:51.566Z,48.34
2019-05-19T02:29:22.679Z,48.31
2019-05-19T02:31:52.992Z,48.29
2019-05-19T02:34:23.223Z,48.22
2019-05-19T02:36:51.760Z,48.19
2019-05-19T02:39:22.065Z,48.11
2019-05-19T02:41:52.438Z,48.10
2019-05-19T02:44:22.710Z,48.07
2019-05-19T02:46:53.034Z,48.07
2019-05-19T02:49:24.028Z,48.00
2019-05-19T02:51:54.600Z,47.94
2019-05-19T02:54:24.881Z,47.90
2019-05-19T02:56:55.210Z,47.85
2019-05-19T02:59:25.520Z,47.87
2019-05-19T03:02:03.323Z,47.83
2019-05-19T03:04:33.558Z,47.74
2019-05-19T03:07:03.687Z,47.72
2019-05-19T03:09:34.051Z,47.71
2019-05-19T03:12:04.305Z,47.65
2019-05-19T03:14:34.601Z,47.68
2019-05-19T03:17:04.936Z,47.64
2019-05-19T03:19:35.097Z,47.59
2019-05-19T03:22:05.428Z,47.58
2019-05-19T03:24:35.823Z,47.55
2019-05-19T03:27:06.060Z,47.54
2019-05-19T03:29:40.243Z,47.53
2019-05-19T03:32:44.742Z,47.49
2019-05-19T03:35:15.001Z,47.44
2019-05-19T03:37:45.376Z,47.41
2019-05-19T03:40:21.916Z,47.44
2019-05-19T03:42:52.400Z,47.37
2019-05-19T03:45:22.583Z,47.35
2019-05-19T03:47:52.906Z,47.35
2019-05-19T03:50:23.258Z,47.29
2019-05-19T03:52:53.519Z,47.30
2019-05-19T03:55:23.887Z,47.28
2019-05-19T03:57:54.085Z,47.27
2019-05-19T04:00:24.446Z,47.24
2019-05-19T04:02:54.751Z,47.21
2019-05-19T04:05:24.955Z,47.20
2019-05-19T04:07:55.322Z,47.18
2019-05-19T04:10:25.484Z,47.17
2019-05-19T04:12:55.767Z,47.14
2019-05-19T04:15:26.000Z,47.14
2019-05-19T04:17:56.243Z,47.11
2019-05-19T04:20:26.527Z,47.05
2019-05-19T04:22:56.914Z,47.06
2019-05-19T04:25:27.294Z,47.07
2019-05-19T04:27:57.562Z,47.00
2019-05-19T04:30:27.971Z,47.01
2019-05-19T04:32:58.307Z,47.00
2019-05-19T04:35:28.741Z,46.98
2019-05-19T04:37:58.974Z,46.96
2019-05-19T04:40:29.173Z,46.91
2019-05-19T04:42:59.496Z,46.93
2019-05-19T04:45:29.732Z,46.93
2019-05-19T04:48:00.013Z,46.88
2019-05-19T04:50:30.190Z,46.89
2019-05-19T04:53:00.655Z,46.89
2019-05-19T04:55:30.903Z,46.88
2019-05-19T04:58:01.193Z,46.88
2019-05-19T05:00:31.561Z,46.84
2019-05-19T05:03:01.778Z,46.84
2019-05-19T05:05:32.201Z,46.84
2019-05-19T05:08:02.490Z,46.80
2019-05-19T05:10:32.741Z,46.76
2019-05-19T05:13:03.034Z,46.79
2019-05-19T05:15:33.367Z,46.81
2019-05-19T05:18:03.538Z,46.75
2019-05-19T05:20:33.756Z,46.77
2019-05-19T05:23:04.152Z,46.76
2019-05-19T05:25:34.490Z,46.77
2019-05-19T05:28:04.771Z,46.74
2019-05-19T05:30:35.028Z,46.71
2019-05-19T05:33:05.318Z,46.71
2019-05-19T05:35:36.653Z,46.71
2019-05-19T05:38:06.845Z,46.70
2019-05-19T05:40:37.092Z,46.68
2019-05-19T05:43:07.352Z,46.71
2019-05-19T05:45:37.737Z,46.66
2019-05-19T05:48:08.000Z,46.64
2019-05-19T05:50:38.325Z,46.64
2019-05-19T05:53:08.688Z,46.70
2019-05-19T05:55:38.965Z,46.67
2019-05-19T05:58:09.399Z,46.69
2019-05-19T06:00:39.717Z,46.67
2019-05-19T06:03:10.041Z,46.68
2019-05-19T06:05:40.291Z,46.66
2019-05-19T06:08:10.538Z,46.66
2019-05-19T06:10:41.505Z,46.71
2019-05-19T06:13:12.837Z,46.63
2019-05-19T06:15:43.125Z,46.48
2019-05-19T06:18:13.359Z,46.44
2019-05-19T06:20:43.604Z,46.55
2019-05-19T06:23:13.762Z,46.51
2019-05-19T06:25:44.085Z,46.65
2019-05-19T06:28:14.285Z,46.68
2019-05-19T06:30:44.659Z,46.66
2019-05-19T06:33:14.921Z,46.63
2019-05-19T06:35:46.186Z,46.65
2019-05-19T06:38:16.720Z,46.67
2019-05-19T06:40:46.871Z,46.72
2019-05-19T06:43:17.366Z,46.72
2019-05-19T06:45:47.647Z,46.77
2019-05-19T06:48:18.009Z,46.84
2019-05-19T06:50:48.343Z,46.82
2019-05-19T06:53:18.535Z,46.85
2019-05-19T06:55:48.857Z,46.85
2019-05-19T06:58:19.198Z,46.83
2019-05-19T07:00:49.475Z,46.89
2019-05-19T07:03:19.695Z,46.89
2019-05-19T07:05:49.960Z,46.91
2019-05-19T07:08:20.174Z,46.96
2019-05-19T07:10:50.462Z,46.89
2019-05-19T07:13:20.718Z,46.79
2019-05-19T07:15:51.000Z,46.93
2019-05-19T07:18:21.375Z,46.96
2019-05-19T07:20:51.657Z,47.01
2019-05-19T07:23:28.252Z,47.06
2019-05-19T07:25:54.246Z,47.07
2019-05-19T07:28:24.560Z,47.00
2019-05-19T07:30:55.315Z,47.00
2019-05-19T07:33:25.547Z,46.94
2019-05-19T07:35:55.939Z,46.84
2019-05-19T07:38:26.164Z,46.83
2019-05-19T07:40:56.620Z,46.88
2019-05-19T07:43:26.915Z,46.85
2019-05-19T07:45:57.273Z,46.90
2019-05-19T07:48:27.512Z,47.02
2019-05-19T07:50:57.641Z,47.03
2019-05-19T07:53:41.919Z,46.96
2019-05-19T07:55:59.642Z,46.95
2019-05-19T07:58:30.416Z,47.01
2019-05-19T08:01:00.809Z,47.07
2019-05-19T08:03:31.120Z,47.11
2019-05-19T08:06:01.735Z,47.14
2019-05-19T08:08:32.075Z,47.08
2019-05-19T08:11:02.401Z,46.96
2019-05-19T08:13:32.763Z,46.91
2019-05-19T08:16:03.055Z,46.30
2019-05-19T08:18:33.481Z,46.30
2019-05-19T08:21:03.730Z,46.58
2019-05-19T08:23:33.962Z,46.67
2019-05-19T08:26:04.236Z,46.76
2019-05-19T08:28:34.453Z,46.75
2019-05-19T08:31:04.737Z,46.86
2019-05-19T08:33:34.955Z,47.05
2019-05-19T08:36:06.576Z,47.23
2019-05-19T08:38:36.867Z,47.37
2019-05-19T08:41:07.104Z,47.29
2019-05-19T08:43:37.550Z,47.20
2019-05-19T08:46:07.919Z,47.10
2019-05-19T08:48:38.173Z,47.12
2019-05-19T08:51:08.460Z,47.29
2019-05-19T08:53:38.746Z,47.53
2019-05-19T08:56:08.867Z,47.76
2019-05-19T08:58:39.195Z,47.69
2019-05-19T09:01:09.369Z,47.53
2019-05-19T09:03:39.631Z,47.48
2019-05-19T09:06:09.843Z,47.46
2019-05-19T09:08:40.106Z,47.35
2019-05-19T09:11:10.349Z,47.56
2019-05-19T09:13:40.617Z,47.91
2019-05-19T09:16:10.899Z,48.10
2019-05-19T09:18:41.421Z,48.28
2019-05-19T09:21:11.856Z,48.00
2019-05-19T09:23:42.168Z,48.31
2019-05-19T09:26:12.367Z,48.47
2019-05-19T09:28:43.061Z,48.44
2019-05-19T09:31:13.419Z,48.62
2019-05-19T09:33:43.575Z,48.18
2019-05-19T09:36:13.820Z,48.12
2019-05-19T09:38:44.100Z,48.09
2019-05-19T09:41:14.292Z,47.99
2019-05-19T09:43:44.593Z,47.98
2019-05-19T09:46:14.983Z,47.83
2019-05-19T09:48:45.750Z,47.72
2019-05-19T09:51:15.925Z,47.78
2019-05-19T09:53:46.046Z,47.93
2019-05-19T09:56:16.248Z,48.03
2019-05-19T09:58:47.483Z,48.01
2019-05-19T10:01:17.711Z,47.89
2019-05-19T10:03:47.883Z,47.70
2019-05-19T10:06:18.093Z,47.72
2019-05-19T10:08:51.568Z,47.84
2019-05-19T10:11:32.122Z,47.86
2019-05-19T10:14:06.350Z,47.80
2019-05-19T10:16:36.502Z,47.64
2019-05-19T10:19:09.034Z,47.61
2019-05-19T10:21:39.198Z,47.68
2019-05-19T10:24:09.413Z,47.78
2019-05-19T10:26:39.580Z,47.77
2019-05-19T10:29:09.702Z,47.66
2019-05-19T10:31:39.888Z,47.59
2019-05-19T10:34:10.021Z,47.57
2019-05-19T10:36:40.181Z,47.68
2019-05-19T10:39:10.341Z,47.66
2019-05-19T10:41:40.737Z,47.67
2019-05-19T10:44:11.019Z,47.85
2019-05-19T10:46:41.341Z,47.71
2019-05-19T10:49:11.544Z,47.68
2019-05-19T10:51:41.698Z,47.63
2019-05-19T10:54:11.825Z,47.61
2019-05-19T10:56:42.001Z,47.75
2019-05-19T10:59:12.134Z,47.79
2019-05-19T11:01:42.329Z,47.73
2019-05-19T11:04:12.572Z,47.67
2019-05-19T11:06:42.948Z,47.63
2019-05-19T11:09:13.148Z,47.64
2019-05-19T11:11:43.295Z,47.66
2019-05-19T11:14:13.412Z,47.58
2019-05-19T11:16:45.427Z,47.62
2019-05-19T11:19:15.561Z,47.71
2019-05-19T11:21:45.686Z,47.62
2019-05-19T11:24:18.718Z,47.46
2019-05-19T11:26:48.908Z,47.57
2019-05-19T11:29:19.072Z,47.70
2019-05-19T11:31:49.239Z,47.76
2019-05-19T11:34:19.431Z,47.82
2019-05-19T11:36:49.774Z,47.85
2019-05-19T11:39:21.613Z,47.78
2019-05-19T11:41:51.843Z,47.88
2019-05-19T11:44:21.964Z,48.01
2019-05-19T11:46:52.118Z,47.87
2019-05-19T11:49:22.240Z,48.08
2019-05-19T11:51:52.400Z,48.20
2019-05-19T11:54:22.522Z,48.33
2019-05-19T11:56:52.793Z,48.36
2019-05-19T11:59:22.920Z,48.58
2019-05-19T12:01:53.273Z,48.69
2019-05-19T12:04:23.875Z,48.62
2019-05-19T12:06:54.226Z,48.51
2019-05-19T12:09:24.485Z,48.44
2019-05-19T12:11:54.776Z,48.52
2019-05-19T12:14:25.217Z,48.42
2019-05-19T12:16:55.555Z,48.41
2019-05-19T12:19:25.798Z,48.45
2019-05-19T12:21:56.277Z,48.40
2019-05-19T12:24:26.597Z,47.90
2019-05-19T12:26:56.845Z,47.89
2019-05-19T12:29:27.151Z,47.86
2019-05-19T12:31:57.492Z,47.70
2019-05-19T12:34:28.641Z,47.42
2019-05-19T12:36:58.970Z,47.38
2019-05-19T12:39:29.417Z,47.27
2019-05-19T12:41:59.661Z,47.29
2019-05-19T12:44:29.822Z,47.41
2019-05-19T12:47:00.248Z,47.52
2019-05-19T12:49:30.447Z,47.61
2019-05-19T12:52:00.812Z,47.58
2019-05-19T12:54:31.030Z,47.72
2019-05-19T12:57:01.178Z,47.85
2019-05-19T12:59:31.874Z,47.81
2019-05-19T13:02:02.032Z,47.75
2019-05-19T13:04:32.152Z,47.73
2019-05-19T13:07:02.331Z,47.77
2019-05-19T13:09:32.574Z,47.73
2019-05-19T13:12:03.003Z,47.77
2019-05-19T13:14:33.207Z,47.81
2019-05-19T13:17:03.560Z,47.89
2019-05-19T13:19:34.794Z,48.05
2019-05-19T13:22:04.922Z,48.19
2019-05-19T13:24:35.134Z,48.76
2019-05-19T13:27:05.253Z,48.92
2019-05-19T13:29:35.539Z,48.89
2019-05-19T13:32:05.705Z,48.75
2019-05-19T13:34:36.016Z,48.71
2019-05-19T13:37:06.156Z,48.67
2019-05-19T13:39:36.331Z,48.78
2019-05-19T13:42:06.519Z,48.92
2019-05-19T13:44:36.745Z,50.17
2019-05-19T13:47:06.947Z,51.24
2019-05-19T13:49:38.266Z,52.08
2019-05-19T13:52:08.438Z,52.19
2019-05-19T13:54:40.177Z,52.34
2019-05-19T13:57:12.536Z,52.82
2019-05-19T13:59:42.411Z,53.25
2019-05-19T14:02:12.617Z,53.62
2019-05-19T14:04:42.844Z,53.59
2019-05-19T14:07:12.964Z,53.45
2019-05-19T14:09:43.222Z,54.00
2019-05-19T14:12:13.526Z,53.98
2019-05-19T14:14:43.720Z,54.38
2019-05-19T14:17:13.837Z,54.61
2019-05-19T14:19:43.974Z,54.20
2019-05-19T14:22:14.245Z,54.11
2019-05-19T14:24:44.468Z,54.71
2019-05-19T14:27:28.792Z,54.92
2019-05-19T14:29:46.505Z,54.83
2019-05-19T14:32:16.647Z,54.64
2019-05-19T14:34:46.760Z,54.76
2019-05-19T14:37:16.987Z,54.23
2019-05-19T14:39:47.108Z,54.29
2019-05-19T14:42:36.178Z,54.18
2019-05-19T14:45:07.502Z,54.02
2019-05-19T14:47:37.841Z,53.74
2019-05-19T14:50:07.962Z,53.53
2019-05-19T14:52:38.082Z,53.39
2019-05-19T14:55:08.205Z,53.31
2019-05-19T14:57:44.865Z,53.20
2019-05-19T15:00:11.167Z,53.06
2019-05-19T15:02:41.312Z,53.04
2019-05-19T15:05:11.426Z,52.97
2019-05-19T15:07:41.821Z,52.88
2019-05-19T15:10:11.965Z,52.79
2019-05-19T15:12:42.142Z,52.72
2019-05-19T15:15:12.595Z,52.70
2019-05-19T15:17:42.830Z,52.71
2019-05-19T15:20:13.065Z,52.71
2019-05-19T15:22:43.282Z,52.67
2019-05-19T15:25:13.399Z,52.54
2019-05-19T15:27:43.532Z,52.58
2019-05-19T15:30:14.004Z,52.61
2019-05-19T15:32:45.143Z,52.52
2019-05-19T15:35:15.479Z,52.51
2019-05-19T15:37:45.594Z,52.49
2019-05-19T15:40:15.782Z,52.49
2019-05-19T15:42:45.903Z,52.49
2019-05-19T15:45:16.292Z,52.50
2019-05-19T15:47:47.377Z,52.39
2019-05-19T15:50:17.535Z,52.39
2019-05-19T15:52:47.659Z,52.37
2019-05-19T15:55:17.812Z,52.39
2019-05-19T15:57:47.967Z,52.38
2019-05-19T16:00:18.084Z,52.35
2019-05-19T16:02:48.268Z,52.31
2019-05-19T16:05:18.391Z,52.29
2019-05-19T16:07:48.579Z,52.25
2019-05-19T16:10:18.749Z,52.28
2019-05-19T16:12:48.869Z,52.26
2019-05-19T16:15:20.592Z,52.20
2019-05-19T16:17:50.721Z,52.19
2019-05-19T16:20:20.968Z,52.18
2019-05-19T16:22:51.347Z,52.18
2019-05-19T16:25:21.453Z,52.12
2019-05-19T16:27:51.691Z,52.14
2019-05-19T16:30:24.869Z,52.13
2019-05-19T16:32:55.063Z,52.15
2019-05-19T16:35:25.349Z,52.15
2019-05-19T16:37:55.499Z,52.15
2019-05-19T16:40:25.657Z,52.14
2019-05-19T16:42:55.883Z,52.15
2019-05-19T16:45:26.093Z,52.13
2019-05-19T16:47:56.316Z,52.09
2019-05-19T16:50:26.438Z,52.12
2019-05-19T16:52:56.800Z,52.11
2019-05-19T16:55:28.365Z,52.09
2019-05-19T16:57:58.513Z,52.14
2019-05-19T17:00:29.559Z,52.12
2019-05-19T17:02:59.908Z,52.10
2019-05-19T17:05:30.022Z,52.11
2019-05-19T17:08:00.243Z,52.05
2019-05-19T17:10:30.469Z,52.05
2019-05-19T17:13:00.629Z,52.01
2019-05-19T17:15:29.195Z,52.00
2019-05-19T17:17:58.010Z,52.01
2019-05-19T17:20:30.929Z,51.96
2019-05-19T17:23:00.373Z,51.94
2019-05-19T17:25:30.496Z,51.94
2019-05-19T17:28:00.797Z,51.88
2019-05-19T17:30:30.941Z,51.90
2019-05-19T17:33:01.066Z,51.94
2019-05-19T17:35:31.745Z,51.87
2019-05-19T17:38:02.010Z,51.86
2019-05-19T17:40:32.170Z,51.79
2019-05-19T17:43:02.350Z,51.79
2019-05-19T17:45:32.534Z,51.79
2019-05-19T17:48:10.047Z,51.75
2019-05-19T17:50:35.209Z,51.76
2019-05-19T17:53:05.372Z,51.76
2019-05-19T17:55:36.575Z,51.79
2019-05-19T17:58:06.688Z,51.79
2019-05-19T18:00:38.546Z,51.77
2019-05-19T18:03:08.691Z,51.76
2019-05-19T18:05:38.873Z,51.76
2019-05-19T18:08:09.390Z,51.74
2019-05-19T18:10:39.623Z,51.80
2019-05-19T18:13:09.824Z,51.79
2019-05-19T18:15:40.862Z,51.78
2019-05-19T18:18:11.018Z,51.76
2019-05-19T18:20:42.192Z,51.79
2019-05-19T18:23:12.518Z,51.85
2019-05-19T18:25:42.708Z,52.38
2019-05-19T18:28:12.940Z,53.07
2019-05-19T18:30:43.169Z,53.48
2019-05-19T18:33:13.376Z,53.81
2019-05-19T18:35:43.705Z,53.83
2019-05-19T18:38:14.659Z,53.88
2019-05-19T18:40:44.941Z,53.69
2019-05-19T18:43:15.353Z,53.68
2019-05-19T18:45:45.757Z,53.64
2019-05-19T18:48:18.223Z,53.61
2019-05-19T18:50:50.304Z,53.58
2019-05-19T18:53:20.890Z,53.50
2019-05-19T18:55:51.619Z,53.23
2019-05-19T18:58:22.089Z,53.33
2019-05-19T19:00:55.654Z,53.31
2019-05-19T19:03:26.176Z,53.17
2019-05-19T19:05:56.798Z,53.12
2019-05-19T19:08:28.663Z,53.04
2019-05-19T19:10:59.040Z,53.01
2019-05-19T19:13:29.804Z,52.93
2019-05-19T19:16:02.106Z,52.90
2019-05-19T19:18:32.387Z,52.85
2019-05-19T19:21:03.814Z,52.84
2019-05-19T19:23:34.280Z,52.80
2019-05-19T19:26:04.648Z,52.84
2019-05-19T19:28:35.437Z,52.86
2019-05-19T19:31:06.097Z,52.81
2019-05-19T19:33:37.812Z,52.76
2019-05-19T19:36:08.970Z,52.36
2019-05-19T19:38:39.768Z,51.67
2019-05-19T19:41:10.292Z,51.40
2019-05-19T19:43:40.789Z,51.77
2019-05-19T19:46:11.229Z,51.65
2019-05-19T19:48:41.642Z,51.66
2019-05-19T19:51:12.221Z,51.79
2019-05-19T19:53:43.229Z,51.78
2019-05-19T19:56:13.756Z,51.69
2019-05-19T19:58:44.405Z,51.64
2019-05-19T20:01:18.995Z,51.59
2019-05-19T20:03:49.555Z,51.54
2019-05-19T20:06:20.127Z,51.23
2019-05-19T20:08:50.520Z,50.95
2019-05-19T20:11:23.215Z,50.87
2019-05-19T20:13:53.839Z,50.74
2019-05-19T20:16:24.582Z,50.64
2019-05-19T20:18:55.051Z,50.60
2019-05-19T20:21:26.967Z,50.49
2019-05-19T20:23:57.581Z,50.49
2019-05-19T20:26:28.251Z,50.46
2019-05-19T20:28:59.023Z,50.39
2019-05-19T20:31:31.542Z,50.39
2019-05-19T20:34:02.049Z,50.35
2019-05-19T20:36:32.347Z,50.34
2019-05-19T20:39:03.391Z,50.35
2019-05-19T20:41:33.920Z,50.35
2019-05-19T20:44:04.706Z,50.32
2019-05-19T20:46:35.856Z,50.27
2019-05-19T20:49:08.991Z,50.30
2019-05-19T20:51:39.387Z,50.26
2019-05-19T20:54:09.715Z,50.21
2019-05-19T20:56:40.105Z,50.26
2019-05-19T20:59:10.303Z,50.21
2019-05-19T21:01:40.685Z,50.21
2019-05-19T21:04:10.982Z,50.19
2019-05-19T21:06:41.282Z,50.16
2019-05-19T21:09:11.670Z,50.18
2019-05-19T21:11:41.892Z,50.16
2019-05-19T21:14:12.085Z,50.20
2019-05-19T21:16:42.361Z,50.08
2019-05-19T21:19:13.442Z,50.01
2019-05-19T21:21:43.725Z,50.03
2019-05-19T21:24:13.921Z,50.19
2019-05-19T21:26:44.128Z,50.38
2019-05-19T21:29:14.427Z,50.43
2019-05-19T21:31:44.850Z,50.49
2019-05-19T21:34:15.187Z,50.56
2019-05-19T21:36:45.398Z,50.63
2019-05-19T21:39:16.737Z,50.65
2019-05-19T21:41:47.026Z,50.71
2019-05-19T21:44:17.216Z,50.68
2019-05-19T21:46:47.496Z,50.71
2019-05-19T21:49:17.720Z,50.64
2019-05-19T21:51:48.011Z,50.67
2019-05-19T21:54:18.331Z,50.71
2019-05-19T21:56:48.478Z,50.71
2019-05-19T21:59:18.765Z,50.71
2019-05-19T22:01:49.104Z,50.71
2019-05-19T22:04:19.419Z,50.67
2019-05-19T22:06:56.991Z,50.67
2019-05-19T22:09:27.167Z,50.62
2019-05-19T22:11:57.452Z,50.60
2019-05-19T22:14:27.768Z,50.61
2019-05-19T22:16:58.035Z,50.56
2019-05-19T22:19:28.313Z,50.55
2019-05-19T22:21:58.696Z,50.57
2019-05-19T22:24:28.955Z,50.55
2019-05-19T22:26:59.218Z,50.50
2019-05-19T22:29:29.508Z,50.48
2019-05-19T22:31:59.711Z,50.43
2019-05-19T22:34:30.003Z,50.47
2019-05-19T22:37:00.178Z,50.43
2019-05-19T22:39:30.518Z,50.40
2019-05-19T22:42:00.739Z,50.43
2019-05-19T22:44:31.373Z,50.38
2019-05-19T22:47:02.220Z,50.36
2019-05-19T22:49:32.487Z,50.35
2019-05-19T22:52:02.766Z,50.31
2019-05-19T22:54:33.005Z,50.30
2019-05-19T22:57:03.227Z,50.28
2019-05-19T22:59:33.439Z,50.29
2019-05-19T23:02:03.940Z,50.26
2019-05-19T23:04:34.199Z,50.22
2019-05-19T23:07:04.365Z,50.23
2019-05-19T23:09:34.698Z,50.24
2019-05-19T23:12:05.111Z,50.21
2019-05-19T23:14:35.457Z,50.19
2019-05-19T23:17:05.711Z,50.15
2019-05-19T23:19:35.952Z,50.14
2019-05-19T23:22:06.416Z,50.13
2019-05-19T23:24:36.735Z,50.12
2019-05-19T23:27:06.981Z,50.08
2019-05-19T23:29:37.250Z,50.08
2019-05-19T23:32:07.722Z,50.07
2019-05-19T23:34:38.037Z,50.04
2019-05-19T23:37:08.310Z,50.01
2019-05-19T23:39:38.680Z,50.01
2019-05-19T23:42:08.900Z,49.97
2019-05-19T23:44:39.214Z,49.96
2019-05-19T23:47:09.502Z,49.93
2019-05-19T23:49:39.856Z,49.93
2019-05-19T23:52:10.187Z,49.88
2019-05-19T23:54:40.503Z,49.86
2019-05-19T23:57:10.729Z,49.85
2019-05-19T23:59:41.007Z,49.81
